createdAt,value
2017-09-18T00:01:31.782Z,10.70
2017-09-18T00:03:59.289Z,10.70
2017-09-18T00:06:26.821Z,10.70
2017-09-18T00:08:54.381Z,10.60
2017-09-18T00:11:21.880Z,10.60
2017-09-18T00:13:49.413Z,10.50
2017-09-18T00:16:16.925Z,10.50
2017-09-18T00:18:44.413Z,10.50
2017-09-18T00:21:11.951Z,10.40
2017-09-18T00:23:39.448Z,10.40
2017-09-18T00:26:06.995Z,10.40
2017-09-18T00:28:34.490Z,10.40
2017-09-18T00:31:01.986Z,10.30
2017-09-18T00:33:29.522Z,10.30
2017-09-18T00:35:57.018Z,10.20
2017-09-18T00:38:24.531Z,10.20
2017-09-18T00:40:52.825Z,10.20
2017-09-18T00:43:20.321Z,10.20
2017-09-18T00:45:48.611Z,10.10
2017-09-18T00:48:16.121Z,10.10
2017-09-18T00:50:44.393Z,10.10
2017-09-18T00:53:12.683Z,10.10
2017-09-18T00:55:40.188Z,10.00
2017-09-18T00:58:08.467Z,10.00
2017-09-18T01:00:36.779Z,10.00
2017-09-18T01:03:04.277Z,10.00
2017-09-18T01:05:31.785Z,10.00
2017-09-18T01:07:59.301Z,10.00
2017-09-18T01:10:26.805Z,10.00
2017-09-18T01:12:54.329Z,10.00
2017-09-18T01:15:21.815Z,9.90
2017-09-18T01:17:49.361Z,9.90
2017-09-18T01:20:16.862Z,9.90
2017-09-18T01:22:45.122Z,9.80
2017-09-18T01:25:13.413Z,9.70
2017-09-18T01:27:40.930Z,9.70
2017-09-18T01:30:09.203Z,9.70
2017-09-18T01:32:37.490Z,9.70
2017-09-18T01:35:05.208Z,9.70
2017-09-18T01:37:33.466Z,9.40
2017-09-18T01:40:01.745Z,9.40
2017-09-18T01:42:29.241Z,9.40
2017-09-18T01:44:56.749Z,9.50
2017-09-18T01:47:24.253Z,9.40
2017-09-18T01:49:52.535Z,9.40
2017-09-18T01:52:20.045Z,9.40
2017-09-18T01:54:47.546Z,9.30
2017-09-18T01:57:15.076Z,9.30
2017-09-18T01:59:42.569Z,9.30
2017-09-18T02:02:10.053Z,9.30
2017-09-18T02:04:37.578Z,9.10
2017-09-18T02:07:05.833Z,9.10
2017-09-18T02:09:34.124Z,9.00
2017-09-18T02:12:01.621Z,9.00
2017-09-18T02:14:29.798Z,8.90
2017-09-18T02:16:58.086Z,9.00
2017-09-18T02:19:25.582Z,9.00
2017-09-18T02:21:53.114Z,9.00
2017-09-18T02:24:20.614Z,8.90
2017-09-18T02:26:48.101Z,8.90
2017-09-18T02:29:15.696Z,9.10
2017-09-18T02:31:43.192Z,9.30
2017-09-18T02:34:10.718Z,9.30
2017-09-18T02:36:38.206Z,9.20
2017-09-18T02:39:06.498Z,9.10
2017-09-18T02:41:33.986Z,9.10
2017-09-18T02:44:01.521Z,9.20
2017-09-18T02:46:29.008Z,9.20
2017-09-18T02:48:56.503Z,9.30
2017-09-18T02:51:24.038Z,9.40
2017-09-18T02:53:51.530Z,9.50
2017-09-18T02:56:19.786Z,9.60
2017-09-18T02:58:48.066Z,9.60
2017-09-18T03:01:15.558Z,9.60
2017-09-18T03:03:43.084Z,9.60
2017-09-18T03:06:11.346Z,9.80
2017-09-18T03:08:38.857Z,9.80
2017-09-18T03:11:06.449Z,9.90
2017-09-18T03:13:33.953Z,9.80
2017-09-18T03:16:01.433Z,9.80
2017-09-18T03:18:28.970Z,9.80
2017-09-18T03:20:56.458Z,9.80
2017-09-18T03:23:24.760Z,9.90
2017-09-18T03:25:52.241Z,9.90
2017-09-18T03:28:19.769Z,9.90
2017-09-18T03:30:47.305Z,9.90
2017-09-18T03:33:14.799Z,9.90
2017-09-18T03:35:42.298Z,9.80
2017-09-18T03:38:09.841Z,9.80
2017-09-18T03:40:37.341Z,9.80
2017-09-18T03:43:06.357Z,9.90
2017-09-18T03:45:34.050Z,9.80
2017-09-18T03:48:02.307Z,9.80
2017-09-18T03:50:30.565Z,9.80
2017-09-18T03:52:58.874Z,9.80
2017-09-18T03:55:26.374Z,9.80
2017-09-18T03:57:53.869Z,9.80
2017-09-18T04:00:21.394Z,9.70
2017-09-18T04:02:48.921Z,9.70
2017-09-18T04:05:16.421Z,9.80
2017-09-18T04:07:43.947Z,9.80
2017-09-18T04:10:12.432Z,9.80
2017-09-18T04:12:39.967Z,9.80
2017-09-18T04:15:07.449Z,9.80
2017-09-18T04:17:34.957Z,9.80
2017-09-18T04:20:02.494Z,9.70
2017-09-18T04:22:29.986Z,9.70
2017-09-18T04:24:57.514Z,9.80
2017-09-18T04:27:25.766Z,9.70
2017-09-18T04:29:54.017Z,9.70
2017-09-18T04:32:22.302Z,9.70
2017-09-18T04:34:50.546Z,9.70
2017-09-18T04:37:18.841Z,9.70
2017-09-18T04:39:46.341Z,9.60
2017-09-18T04:42:13.837Z,9.70
2017-09-18T04:44:41.356Z,9.60
2017-09-18T04:47:08.844Z,9.70
2017-09-18T04:49:36.350Z,9.70
2017-09-18T04:52:03.865Z,9.60
2017-09-18T04:54:31.393Z,9.60
2017-09-18T04:56:58.893Z,9.60
2017-09-18T04:59:26.396Z,9.60
2017-09-18T05:01:53.909Z,9.50
2017-09-18T05:04:21.442Z,9.50
2017-09-18T05:06:48.938Z,9.50
2017-09-18T05:09:16.433Z,9.50
2017-09-18T05:11:43.957Z,9.50
2017-09-18T05:14:11.453Z,9.40
2017-09-18T05:16:39.749Z,9.40
2017-09-18T05:19:07.314Z,9.30
2017-09-18T05:21:34.799Z,9.30
2017-09-18T05:24:02.338Z,9.30
2017-09-18T05:26:29.817Z,9.30
2017-09-18T05:28:57.357Z,9.40
2017-09-18T05:31:24.851Z,9.50
2017-09-18T05:33:52.367Z,9.50
2017-09-18T05:36:20.015Z,9.50
2017-09-18T05:38:47.534Z,9.50
2017-09-18T05:41:15.029Z,9.50
2017-09-18T05:43:42.545Z,9.60
2017-09-18T05:46:10.035Z,9.60
2017-09-18T05:48:38.338Z,9.70
2017-09-18T05:51:05.824Z,9.70
2017-09-18T05:53:33.319Z,9.80
2017-09-18T05:56:00.851Z,9.90
2017-09-18T05:58:29.104Z,9.90
2017-09-18T06:00:56.603Z,9.90
2017-09-18T06:03:24.126Z,9.90
2017-09-18T06:05:51.656Z,10.00
2017-09-18T06:08:19.154Z,10.00
2017-09-18T06:10:46.669Z,10.00
2017-09-18T06:13:14.157Z,10.20
2017-09-18T06:15:42.455Z,10.30
2017-09-18T06:18:09.957Z,10.30
2017-09-18T06:20:38.234Z,10.50
2017-09-18T06:23:05.761Z,10.50
2017-09-18T06:25:34.043Z,10.60
2017-09-18T06:28:01.590Z,10.60
2017-09-18T06:30:29.077Z,10.60
2017-09-18T06:32:57.386Z,10.70
2017-09-18T06:35:24.880Z,10.70
2017-09-18T06:37:52.377Z,10.80
2017-09-18T06:40:19.897Z,10.90
2017-09-18T06:42:48.153Z,11.10
2017-09-18T06:45:16.433Z,11.30
2017-09-18T06:47:43.925Z,11.30
2017-09-18T06:50:11.452Z,11.30
2017-09-18T06:52:38.957Z,11.30
2017-09-18T06:55:06.486Z,11.20
2017-09-18T06:57:33.985Z,11.10
2017-09-18T07:00:01.526Z,10.90
2017-09-18T07:02:29.022Z,10.80
2017-09-18T07:04:57.290Z,10.70
2017-09-18T07:07:25.588Z,10.80
2017-09-18T07:09:53.100Z,10.80
2017-09-18T07:12:20.670Z,10.70
2017-09-18T07:14:48.162Z,10.70
2017-09-18T07:17:15.657Z,10.70
2017-09-18T07:19:43.171Z,10.70
2017-09-18T07:22:10.682Z,10.70
2017-09-18T07:24:38.222Z,10.80
2017-09-18T07:27:05.729Z,10.70
2017-09-18T07:29:33.225Z,10.80
2017-09-18T07:32:00.782Z,10.70
2017-09-18T07:34:29.055Z,10.60
2017-09-18T07:36:56.557Z,10.60
2017-09-18T07:39:24.073Z,10.70
2017-09-18T07:41:51.602Z,10.70
2017-09-18T07:44:19.128Z,10.70
2017-09-18T07:46:47.417Z,10.80
2017-09-18T07:49:14.900Z,10.80
2017-09-18T07:51:42.413Z,10.90
2017-09-18T07:54:09.915Z,10.90
2017-09-18T07:56:38.192Z,10.90
2017-09-18T07:59:05.681Z,10.90
2017-09-18T08:01:33.213Z,11.00
2017-09-18T08:04:00.726Z,11.00
2017-09-18T08:06:28.222Z,11.10
2017-09-18T08:08:55.741Z,11.20
2017-09-18T08:11:23.273Z,11.30
2017-09-18T08:13:50.791Z,11.30
2017-09-18T08:16:18.277Z,11.30
2017-09-18T08:18:45.797Z,11.20
2017-09-18T08:21:13.299Z,11.20
2017-09-18T08:23:41.619Z,11.30
2017-09-18T08:26:09.117Z,11.30
2017-09-18T08:28:36.618Z,11.20
2017-09-18T08:31:04.150Z,11.30
2017-09-18T08:33:31.641Z,11.20
2017-09-18T08:35:59.942Z,11.20
2017-09-18T08:38:27.432Z,11.20
2017-09-18T08:40:55.693Z,11.20
2017-09-18T08:43:23.994Z,11.20
2017-09-18T08:45:51.485Z,11.10
2017-09-18T08:48:18.974Z,11.20
2017-09-18T08:50:46.498Z,11.20
2017-09-18T08:53:14.766Z,11.40
2017-09-18T08:55:42.310Z,11.40
2017-09-18T08:58:09.813Z,11.50
2017-09-18T09:00:37.310Z,11.70
2017-09-18T09:03:04.827Z,11.90
2017-09-18T09:05:33.104Z,12.10
2017-09-18T09:08:00.658Z,12.10
2017-09-18T09:10:28.164Z,12.20
2017-09-18T09:12:56.417Z,12.30
2017-09-18T09:15:23.938Z,12.30
2017-09-18T09:17:51.450Z,12.50
2017-09-18T09:20:18.965Z,12.50
2017-09-18T09:22:47.252Z,13.10
2017-09-18T09:25:14.773Z,13.10
2017-09-18T09:27:42.306Z,13.00
2017-09-18T09:30:10.562Z,12.90
2017-09-18T09:32:38.847Z,13.10
2017-09-18T09:35:07.186Z,13.10
2017-09-18T09:37:35.495Z,13.30
2017-09-18T09:40:02.989Z,13.30
2017-09-18T09:42:30.477Z,13.10
2017-09-18T09:44:58.005Z,13.30
2017-09-18T09:47:25.510Z,13.30
2017-09-18T09:49:53.025Z,13.30
2017-09-18T09:52:20.514Z,13.40
2017-09-18T09:54:48.805Z,13.60
2017-09-18T09:57:16.293Z,13.60
2017-09-18T09:59:43.785Z,13.50
2017-09-18T10:02:11.317Z,13.40
2017-09-18T10:04:38.819Z,13.20
2017-09-18T10:07:06.309Z,13.40
2017-09-18T10:09:33.830Z,13.50
2017-09-18T10:12:02.105Z,13.50
2017-09-18T10:14:30.389Z,13.60
2017-09-18T10:16:57.885Z,13.60
2017-09-18T10:19:25.402Z,13.50
2017-09-18T10:21:52.887Z,13.60
2017-09-18T10:24:21.173Z,13.80
2017-09-18T10:26:48.666Z,13.80
2017-09-18T10:29:16.215Z,13.90
2017-09-18T10:31:43.708Z,13.80
2017-09-18T10:34:11.197Z,13.80
2017-09-18T10:36:38.717Z,13.90
2017-09-18T10:39:06.223Z,14.10
2017-09-18T10:41:33.737Z,14.40
2017-09-18T10:44:01.228Z,14.50
2017-09-18T10:46:28.754Z,14.50
2017-09-18T10:48:56.246Z,14.50
2017-09-18T10:51:23.737Z,14.40
2017-09-18T10:53:51.255Z,14.60
2017-09-18T10:56:19.537Z,14.50
2017-09-18T10:58:47.025Z,14.50
2017-09-18T11:01:14.538Z,14.80
2017-09-18T11:03:42.043Z,14.90
2017-09-18T11:06:10.325Z,14.90
2017-09-18T11:08:37.829Z,14.90
2017-09-18T11:11:05.342Z,14.90
2017-09-18T11:13:32.865Z,15.10
2017-09-18T11:16:01.148Z,15.20
2017-09-18T11:18:28.653Z,15.20
2017-09-18T11:20:56.945Z,15.10
2017-09-18T11:23:24.441Z,15.10
2017-09-18T11:25:52.733Z,15.00
2017-09-18T11:28:20.230Z,14.90
2017-09-18T11:30:47.758Z,15.10
2017-09-18T11:33:15.245Z,14.80
2017-09-18T11:35:43.505Z,15.00
2017-09-18T11:38:11.789Z,15.00
2017-09-18T11:40:39.285Z,15.00
2017-09-18T11:43:06.827Z,15.10
2017-09-18T11:45:34.357Z,15.00
2017-09-18T11:48:02.610Z,14.90
2017-09-18T11:50:30.100Z,14.90
2017-09-18T11:52:58.376Z,15.00
2017-09-18T11:55:25.868Z,15.00
2017-09-18T11:57:53.396Z,15.30
2017-09-18T12:00:20.878Z,15.40
2017-09-18T12:02:48.364Z,15.50
2017-09-18T12:05:15.876Z,15.60
2017-09-18T12:07:44.117Z,15.40
2017-09-18T12:10:11.626Z,15.40
2017-09-18T12:12:39.107Z,15.40
2017-09-18T12:15:06.620Z,15.20
2017-09-18T12:17:34.133Z,15.30
2017-09-18T12:20:01.620Z,15.40
2017-09-18T12:22:29.133Z,15.40
2017-09-18T12:24:56.630Z,15.40
2017-09-18T12:27:24.921Z,15.80
2017-09-18T12:29:52.409Z,15.70
2017-09-18T12:32:19.896Z,15.90
2017-09-18T12:34:47.425Z,15.80
2017-09-18T12:37:15.675Z,15.60
2017-09-18T12:39:43.155Z,15.60
2017-09-18T12:42:10.664Z,15.50
2017-09-18T12:44:38.921Z,15.30
2017-09-18T12:47:07.246Z,15.50
2017-09-18T12:49:34.736Z,15.50
2017-09-18T12:52:02.988Z,15.60
2017-09-18T12:54:30.509Z,15.50
2017-09-18T12:56:57.997Z,15.70
2017-09-18T12:59:25.491Z,15.60
2017-09-18T13:01:53.012Z,15.70
2017-09-18T13:04:20.525Z,15.80
2017-09-18T13:06:48.785Z,16.00
2017-09-18T13:09:16.297Z,16.00
2017-09-18T13:11:43.783Z,16.00
2017-09-18T13:14:11.296Z,16.00
2017-09-18T13:16:39.540Z,16.10
2017-09-18T13:19:07.058Z,16.00
2017-09-18T13:21:34.548Z,16.10
2017-09-18T13:24:02.824Z,15.90
2017-09-18T13:26:30.354Z,15.90
2017-09-18T13:28:58.610Z,16.00
2017-09-18T13:31:26.864Z,16.20
2017-09-18T13:33:55.154Z,16.50
2017-09-18T13:36:22.634Z,16.50
2017-09-18T13:38:50.120Z,16.70
2017-09-18T13:41:18.412Z,16.80
2017-09-18T13:43:45.905Z,16.80
2017-09-18T13:46:13.388Z,16.80
2017-09-18T13:48:40.907Z,16.80
2017-09-18T13:51:09.196Z,16.70
2017-09-18T13:53:36.744Z,16.70
2017-09-18T13:56:04.228Z,16.60
2017-09-18T13:58:31.720Z,16.60
2017-09-18T14:00:59.236Z,16.60
2017-09-18T14:03:26.733Z,16.50
2017-09-18T14:05:55.020Z,16.40
2017-09-18T14:08:22.541Z,16.40
2017-09-18T14:10:50.801Z,16.40
2017-09-18T14:13:19.088Z,16.60
2017-09-18T14:15:46.573Z,16.50
2017-09-18T14:18:14.062Z,16.50
2017-09-18T14:20:41.590Z,16.40
2017-09-18T14:23:09.845Z,16.40
2017-09-18T14:25:38.097Z,16.20
2017-09-18T14:28:05.609Z,16.20
2017-09-18T14:30:33.092Z,16.10
2017-09-18T14:33:01.390Z,15.90
2017-09-18T14:35:28.882Z,15.90
2017-09-18T14:37:56.375Z,15.70
2017-09-18T14:40:23.904Z,15.20
2017-09-18T14:42:51.390Z,14.80
2017-09-18T14:45:18.868Z,14.50
2017-09-18T14:47:47.178Z,13.80
2017-09-18T14:50:14.665Z,13.70
2017-09-18T14:52:42.913Z,13.40
2017-09-18T14:55:11.188Z,13.20
2017-09-18T14:57:38.681Z,13.10
2017-09-18T15:00:06.217Z,13.10
2017-09-18T15:02:33.704Z,13.00
2017-09-18T15:05:02.218Z,13.00
2017-09-18T15:07:29.746Z,13.00
2017-09-18T15:09:57.237Z,13.10
2017-09-18T15:12:24.726Z,13.00
2017-09-18T15:14:52.237Z,13.00
2017-09-18T15:17:20.480Z,12.80
2017-09-18T15:19:47.995Z,12.80
2017-09-18T15:22:15.485Z,12.80
2017-09-18T15:24:43.765Z,12.90
2017-09-18T15:27:11.257Z,12.90
2017-09-18T15:29:38.771Z,13.00
2017-09-18T15:32:06.296Z,13.00
2017-09-18T15:34:33.794Z,13.00
2017-09-18T15:37:01.322Z,12.90
2017-09-18T15:39:28.809Z,13.00
2017-09-18T15:41:57.060Z,13.10
2017-09-18T15:44:24.573Z,13.00
2017-09-18T15:46:52.062Z,13.10
2017-09-18T15:49:19.576Z,13.10
2017-09-18T15:51:47.056Z,13.10
2017-09-18T15:54:14.576Z,13.10
2017-09-18T15:56:42.832Z,13.00
2017-09-18T15:59:11.112Z,12.80
2017-09-18T16:01:38.603Z,12.80
2017-09-18T16:04:06.119Z,12.80
2017-09-18T16:06:33.629Z,12.80
2017-09-18T16:09:01.115Z,12.70
2017-09-18T16:11:28.632Z,12.70
2017-09-18T16:13:56.234Z,12.60
2017-09-18T16:16:23.719Z,12.60
2017-09-18T16:18:51.245Z,12.60
2017-09-18T16:21:19.502Z,12.50
2017-09-18T16:23:47.757Z,12.40
2017-09-18T16:26:16.040Z,12.30
2017-09-18T16:28:43.557Z,12.30
2017-09-18T16:31:11.059Z,12.40
2017-09-18T16:33:38.578Z,12.40
2017-09-18T16:36:06.824Z,12.40
2017-09-18T16:38:35.110Z,12.40
2017-09-18T16:41:02.596Z,12.40
2017-09-18T16:43:30.091Z,12.30
2017-09-18T16:45:57.609Z,12.40
2017-09-18T16:48:25.860Z,12.40
2017-09-18T16:50:54.147Z,12.40
2017-09-18T16:53:21.636Z,12.40
2017-09-18T16:55:49.152Z,12.50
2017-09-18T16:58:16.676Z,12.40
2017-09-18T17:00:44.161Z,12.40
2017-09-18T17:03:11.645Z,12.40
2017-09-18T17:05:39.970Z,12.40
2017-09-18T17:08:07.449Z,12.40
2017-09-18T17:10:35.737Z,12.50
2017-09-18T17:13:03.228Z,12.40
2017-09-18T17:15:30.793Z,12.50
2017-09-18T17:17:59.084Z,12.50
2017-09-18T17:20:26.581Z,12.50
2017-09-18T17:22:54.179Z,12.50
2017-09-18T17:25:21.764Z,12.60
2017-09-18T17:27:49.285Z,12.60
2017-09-18T17:30:16.781Z,12.60
2017-09-18T17:32:45.060Z,12.60
2017-09-18T17:35:12.550Z,12.60
2017-09-18T17:37:40.064Z,12.60
2017-09-18T17:40:07.548Z,12.60
2017-09-18T17:42:35.095Z,12.60
2017-09-18T17:45:02.591Z,12.50
2017-09-18T17:47:30.089Z,12.50
2017-09-18T17:49:58.374Z,12.40
2017-09-18T17:52:25.902Z,12.40
2017-09-18T17:54:54.167Z,12.30
2017-09-18T17:57:22.473Z,12.30
2017-09-18T17:59:49.973Z,12.30
2017-09-18T18:02:18.273Z,12.30
2017-09-18T18:04:45.778Z,12.30
2017-09-18T18:07:14.184Z,12.30
2017-09-18T18:09:41.725Z,12.20
2017-09-18T18:12:09.202Z,12.20
2017-09-18T18:14:36.717Z,12.30
2017-09-18T18:17:04.406Z,12.20
2017-09-18T18:19:32.813Z,12.20
2017-09-18T18:22:00.297Z,12.20
2017-09-18T18:24:27.788Z,12.20
2017-09-18T18:26:55.310Z,12.20
2017-09-18T18:29:23.560Z,12.10
2017-09-18T18:31:51.087Z,12.00
2017-09-18T18:34:18.586Z,12.00
2017-09-18T18:36:46.072Z,12.00
2017-09-18T18:39:13.593Z,12.00
2017-09-18T18:41:41.086Z,12.00
2017-09-18T18:44:09.338Z,12.00
2017-09-18T18:46:37.617Z,12.10
2017-09-18T18:49:05.108Z,12.10
2017-09-18T18:51:32.635Z,12.10
2017-09-18T18:54:00.128Z,12.00
2017-09-18T18:56:28.393Z,12.00
2017-09-18T18:58:56.682Z,12.00
2017-09-18T19:01:24.181Z,12.00
2017-09-18T19:03:51.706Z,12.00
2017-09-18T19:06:19.187Z,12.00
2017-09-18T19:08:46.725Z,11.90
2017-09-18T19:11:15.010Z,12.00
2017-09-18T19:13:42.499Z,12.00
2017-09-18T19:16:10.025Z,11.90
2017-09-18T19:18:37.533Z,12.00
2017-09-18T19:21:05.028Z,12.00
2017-09-18T19:23:32.546Z,12.00
2017-09-18T19:26:00.065Z,11.90
2017-09-18T19:28:27.549Z,11.90
2017-09-18T19:30:55.081Z,12.00
2017-09-18T19:33:22.568Z,12.00
2017-09-18T19:35:50.865Z,12.10
2017-09-18T19:38:18.358Z,12.00
2017-09-18T19:40:45.852Z,12.00
2017-09-18T19:43:13.385Z,11.90
2017-09-18T19:45:40.886Z,11.80
2017-09-18T19:48:08.381Z,11.90
2017-09-18T19:50:35.913Z,11.80
2017-09-18T19:53:03.406Z,11.80
2017-09-18T19:55:30.897Z,11.80
2017-09-18T19:57:58.424Z,11.80
2017-09-18T20:00:26.678Z,11.80
2017-09-18T20:02:54.962Z,11.80
2017-09-18T20:05:22.454Z,11.80
2017-09-18T20:07:49.976Z,11.80
2017-09-18T20:10:17.469Z,11.80
2017-09-18T20:12:45.753Z,11.80
2017-09-18T20:15:13.283Z,11.80
2017-09-18T20:17:41.555Z,11.80
2017-09-18T20:20:09.089Z,11.80
2017-09-18T20:22:36.585Z,11.70
2017-09-18T20:25:04.108Z,11.70
2017-09-18T20:27:31.632Z,11.70
2017-09-18T20:29:59.125Z,11.80
2017-09-18T20:32:26.671Z,11.80
2017-09-18T20:34:54.164Z,11.70
2017-09-18T20:37:21.676Z,11.70
2017-09-18T20:39:49.189Z,11.70
2017-09-18T20:42:16.707Z,11.70
2017-09-18T20:44:44.225Z,11.60
2017-09-18T20:47:11.754Z,11.70
2017-09-18T20:49:40.011Z,11.70
2017-09-18T20:52:08.276Z,11.60
2017-09-18T20:54:36.573Z,11.70
2017-09-18T20:57:04.155Z,11.70
2017-09-18T20:59:31.656Z,11.70
2017-09-18T21:01:59.187Z,11.60
2017-09-18T21:04:26.693Z,11.60
2017-09-18T21:06:54.185Z,11.70
2017-09-18T21:09:21.701Z,11.70
2017-09-18T21:11:49.987Z,11.60
2017-09-18T21:14:17.476Z,11.60
2017-09-18T21:16:44.996Z,11.60
2017-09-18T21:19:12.493Z,11.60
2017-09-18T21:21:40.020Z,11.50
2017-09-18T21:24:07.509Z,11.50
2017-09-18T21:26:35.034Z,11.50
2017-09-18T21:29:02.536Z,11.50
2017-09-18T21:31:30.081Z,11.50
2017-09-18T21:33:57.628Z,11.50
2017-09-18T21:36:25.123Z,11.50
2017-09-18T21:38:52.657Z,11.40
2017-09-18T21:41:20.754Z,11.40
2017-09-18T21:43:48.279Z,11.50
2017-09-18T21:46:15.862Z,11.50
2017-09-18T21:48:44.160Z,11.40
2017-09-18T21:51:11.701Z,11.30
2017-09-18T21:56:15.467Z,11.40
2017-09-18T21:58:43.209Z,11.40
2017-09-18T22:01:10.733Z,11.40
2017-09-18T22:03:38.225Z,11.50
2017-09-18T22:06:05.756Z,11.50
2017-09-18T22:08:34.050Z,11.50
2017-09-18T22:11:01.556Z,11.40
2017-09-18T22:13:29.846Z,11.40
2017-09-18T22:15:57.348Z,11.40
2017-09-18T22:18:24.877Z,11.40
2017-09-18T22:20:52.384Z,11.50
2017-09-18T22:23:19.916Z,11.50
2017-09-18T22:25:47.425Z,11.50
2017-09-18T22:28:14.957Z,11.50
2017-09-18T22:30:42.469Z,11.60
2017-09-18T22:33:09.992Z,11.50
2017-09-18T22:35:38.336Z,11.60
2017-09-18T22:38:06.604Z,11.50
2017-09-18T22:40:34.136Z,11.50
2017-09-18T22:43:02.409Z,11.50
2017-09-18T22:45:29.940Z,11.50
2017-09-18T22:47:58.209Z,11.60
2017-09-18T22:50:26.474Z,11.50
2017-09-18T22:52:54.008Z,11.50
2017-09-18T22:55:22.270Z,11.50
2017-09-18T22:57:49.809Z,11.50
2017-09-18T23:00:18.084Z,11.50
2017-09-18T23:02:45.593Z,11.50
2017-09-18T23:05:13.130Z,11.50
2017-09-18T23:07:40.636Z,11.40
2017-09-18T23:10:08.202Z,11.50
2017-09-18T23:12:35.684Z,11.50
2017-09-18T23:15:03.944Z,11.50
2017-09-18T23:17:32.240Z,11.60
2017-09-18T23:19:59.748Z,11.50
2017-09-18T23:22:28.062Z,11.50
2017-09-18T23:24:55.569Z,11.50
2017-09-18T23:27:23.832Z,11.50
2017-09-18T23:29:52.121Z,11.60
2017-09-18T23:32:19.613Z,11.60
2017-09-18T23:34:47.141Z,11.60
2017-09-18T23:37:14.637Z,11.60
2017-09-18T23:39:42.176Z,11.60
2017-09-18T23:42:09.686Z,11.60
2017-09-18T23:44:37.979Z,11.50
2017-09-18T23:47:05.501Z,11.50
2017-09-18T23:49:33.777Z,11.50
2017-09-18T23:52:01.309Z,11.50
2017-09-18T23:54:29.569Z,11.60
2017-09-18T23:56:57.829Z,11.60
2017-09-18T23:59:26.129Z,11.50
